Time;durP1;ratioP1;P1;durP2;ratioP2;P2;SDS_P1;SDS_P2;PMS_P1;PMS_P2;Temp;Humidity;BMP_temperature;BMP_pressure;BME280_temperature;BME280_humidity;BME280_pressure;Samples;Min_cycle;Max_cycle;Signal;HPM_P1;HPM_P2
2022/01/24 00:02:07;;;;;;;12.40;8.87;;;;;;;;;;5048905;28;20175;-74
2022/01/24 00:04:32;;;;;;;12.07;8.00;;;;;;;;;;5050914;28;20178;-75
2022/01/24 00:06:57;;;;;;;12.30;8.10;;;;;;;;;;5043224;28;20189;-74
2022/01/24 00:09:22;;;;;;;13.80;7.60;;;;;;;;;;5048505;28;20247;-74
2022/01/24 00:17:04;;;;;;;10.60;8.33;;;;;;;;;;5051066;28;20233;-74
2022/01/24 00:27:42;;;;;;;11.30;8.27;;;;;;;;;;5054815;28;20265;-74
2022/01/24 00:30:08;;;;;;;10.83;7.50;;;;;;;;;;5047322;28;20190;-74
2022/01/24 00:32:33;;;;;;;9.93;7.93;;;;;;;;;;5040199;28;20178;-74
2022/01/24 00:34:58;;;;;;;12.43;7.90;;;;;;;;;;5048895;28;20204;-74
2022/01/24 00:37:23;;;;;;;11.00;7.63;;;;;;;;;;5047300;28;20206;-74
2022/01/24 00:39:49;;;;;;;10.13;7.40;;;;;;;;;;5047281;28;20248;-74
2022/01/24 00:45:01;;;;;;;11.63;7.43;;;;;;;;;;5049714;28;20175;-74
2022/01/24 00:47:40;;;;;;;11.43;7.47;;;;;;;;;;5044669;28;20187;-75
2022/01/24 00:55:19;;;;;;;11.03;7.43;;;;;;;;;;5053763;28;20211;-75
2022/01/24 00:57:44;;;;;;;10.73;7.73;;;;;;;;;;5048556;28;20285;-75
2022/01/24 01:00:09;;;;;;;11.77;7.23;;;;;;;;;;5043279;28;20263;-74
2022/01/24 01:02:35;;;;;;;12.23;7.07;;;;;;;;;;5053775;28;20271;-75
2022/01/24 01:18:51;;;;;;;11.33;7.40;;;;;;;;;;5018031;28;20198;-75
2022/01/24 01:21:16;;;;;;;11.63;8.17;;;;;;;;;;5054480;28;20198;-75
2022/01/24 01:23:46;;;;;;;11.80;8.00;;;;;;;;;;5063241;28;20235;-75
2022/01/24 01:27:01;;;;;;;10.63;8.07;;;;;;;;;;5062350;28;20491;-75
2022/01/24 01:29:10;;;;;;;9.63;7.80;;;;;;;;;;5063235;28;20192;-75
2022/01/24 01:31:45;;;;;;;11.40;8.07;;;;;;;;;;5058016;28;20177;-75
2022/01/24 01:55:39;;;;;;;11.07;7.67;;;;;;;;;;5072096;28;20197;-75
2022/01/24 01:58:09;;;;;;;11.17;7.17;;;;;;;;;;5055263;28;20296;-75
2022/01/24 02:00:35;;;;;;;11.10;7.50;;;;;;;;;;5048697;28;20176;-75
2022/01/24 02:03:00;;;;;;;14.03;8.27;;;;;;;;;;5071527;28;20181;-75
2022/01/24 02:05:26;;;;;;;10.17;8.33;;;;;;;;;;5060338;28;20174;-75
2022/01/24 02:07:52;;;;;;;11.33;7.47;;;;;;;;;;5051577;28;20222;-75
2022/01/24 02:10:18;;;;;;;12.07;7.87;;;;;;;;;;5050944;28;20178;-75
2022/01/24 02:12:43;;;;;;;11.40;8.53;;;;;;;;;;5051045;28;20260;-75
2022/01/24 02:15:09;;;;;;;12.87;8.30;;;;;;;;;;5050119;28;20264;-75
2022/01/24 02:18:27;;;;;;;11.70;7.77;;;;;;;;;;5054398;28;20199;-75
2022/01/24 02:23:45;;;;;;;10.77;8.13;;;;;;;;;;5056869;28;20279;-75
2022/01/24 02:26:04;;;;;;;12.00;8.43;;;;;;;;;;5051802;28;20185;-75
2022/01/24 02:28:41;;;;;;;14.53;8.93;;;;;;;;;;5048816;28;20197;-75
2022/01/24 02:33:31;;;;;;;13.57;8.80;;;;;;;;;;5053512;28;20204;-75
2022/01/24 02:35:57;;;;;;;13.97;9.93;;;;;;;;;;5051226;28;20239;-75
2022/01/24 02:38:37;;;;;;;12.83;8.47;;;;;;;;;;5049483;28;20198;-75
2022/01/24 02:49:19;;;;;;;10.67;8.43;;;;;;;;;;5048884;28;20192;-75
2022/01/24 02:51:47;;;;;;;13.63;8.13;;;;;;;;;;5050906;28;20204;-75
2022/01/24 02:54:33;;;;;;;12.17;8.67;;;;;;;;;;5050895;28;20262;-75
2022/01/24 02:56:58;;;;;;;14.90;10.20;;;;;;;;;;5045734;28;20211;-75
2022/01/24 02:59:23;;;;;;;12.07;8.63;;;;;;;;;;5049108;28;20182;-75
2022/01/24 03:01:49;;;;;;;13.03;9.30;;;;;;;;;;5048683;28;20187;-75
2022/01/24 03:04:14;;;;;;;12.63;8.80;;;;;;;;;;5049523;28;20182;-75
2022/01/24 03:06:39;;;;;;;12.30;9.53;;;;;;;;;;5043565;28;20297;-75
2022/01/24 03:09:06;;;;;;;12.63;9.47;;;;;;;;;;5053078;28;20228;-75
2022/01/24 03:11:54;;;;;;;17.03;9.83;;;;;;;;;;5049019;28;20185;-75
2022/01/24 03:14:17;;;;;;;12.63;8.47;;;;;;;;;;5061488;28;20189;-75
2022/01/24 03:16:42;;;;;;;14.13;9.03;;;;;;;;;;5048213;28;20296;-75
2022/01/24 03:19:08;;;;;;;12.33;8.80;;;;;;;;;;5048326;28;20260;-75
2022/01/24 03:21:33;;;;;;;13.43;9.40;;;;;;;;;;5052207;28;20188;-75
2022/01/24 03:23:58;;;;;;;13.63;10.00;;;;;;;;;;5048173;28;20184;-75
2022/01/24 03:26:23;;;;;;;14.00;9.50;;;;;;;;;;5046785;28;20276;-75
2022/01/24 03:28:48;;;;;;;15.10;9.47;;;;;;;;;;5051001;28;20178;-75
2022/01/24 03:31:14;;;;;;;12.67;8.40;;;;;;;;;;5049338;28;20209;-75
2022/01/24 03:33:39;;;;;;;15.27;9.63;;;;;;;;;;5050608;28;20201;-75
2022/01/24 03:36:04;;;;;;;10.90;8.33;;;;;;;;;;5048409;28;20181;-75
2022/01/24 03:38:29;;;;;;;15.43;9.27;;;;;;;;;;5048188;28;20229;-75
2022/01/24 03:40:54;;;;;;;12.10;8.50;;;;;;;;;;5048079;28;20200;-75
2022/01/24 03:43:20;;;;;;;13.97;8.97;;;;;;;;;;5049988;28;20186;-75
2022/01/24 03:45:48;;;;;;;14.03;9.10;;;;;;;;;;5049573;28;20270;-75
2022/01/24 03:48:29;;;;;;;13.27;8.00;;;;;;;;;;5048106;28;20189;-75
2022/01/24 03:50:55;;;;;;;15.30;9.43;;;;;;;;;;5045231;28;20213;-75
2022/01/24 03:53:20;;;;;;;14.20;9.13;;;;;;;;;;5050961;28;20181;-75
2022/01/24 03:55:45;;;;;;;15.37;9.17;;;;;;;;;;5047536;28;20189;-75
2022/01/24 03:58:10;;;;;;;14.70;9.80;;;;;;;;;;5047567;28;20213;-75
2022/01/24 04:00:35;;;;;;;15.67;9.37;;;;;;;;;;5057771;28;20264;-75
2022/01/24 04:03:01;;;;;;;13.80;8.27;;;;;;;;;;5054362;28;20175;-75
2022/01/24 04:05:26;;;;;;;16.03;10.03;;;;;;;;;;5044695;28;20182;-75
2022/01/24 04:07:51;;;;;;;16.50;10.10;;;;;;;;;;5046683;28;20368;-75
2022/01/24 04:10:19;;;;;;;15.43;9.20;;;;;;;;;;5049028;28;20189;-75
2022/01/24 04:12:45;;;;;;;12.87;9.27;;;;;;;;;;5056464;28;20255;-75
2022/01/24 04:18:11;;;;;;;14.20;9.07;;;;;;;;;;5051050;28;20194;-74
2022/01/24 04:23:21;;;;;;;12.83;9.20;;;;;;;;;;5054989;28;20181;-74
2022/01/24 04:25:46;;;;;;;14.63;8.90;;;;;;;;;;5059717;28;20173;-74
2022/01/24 04:28:11;;;;;;;14.57;8.80;;;;;;;;;;5051117;28;20188;-74
2022/01/24 04:30:37;;;;;;;14.97;8.77;;;;;;;;;;5045348;28;20187;-75
2022/01/24 04:33:02;;;;;;;14.50;9.73;;;;;;;;;;5046610;28;20227;-74
2022/01/24 04:35:27;;;;;;;13.63;9.17;;;;;;;;;;5047747;28;20178;-74
2022/01/24 04:37:53;;;;;;;16.90;9.73;;;;;;;;;;5048643;28;20215;-74
2022/01/24 04:40:18;;;;;;;16.67;10.20;;;;;;;;;;5058698;28;20173;-74
2022/01/24 04:42:49;;;;;;;13.33;10.10;;;;;;;;;;5054668;28;20205;-74
2022/01/24 04:45:26;;;;;;;16.33;9.67;;;;;;;;;;5049012;28;20193;-74
2022/01/24 04:50:57;;;;;;;15.27;9.40;;;;;;;;;;5050595;28;20181;-74
2022/01/24 04:55:54;;;;;;;18.67;10.27;;;;;;;;;;5049105;28;20189;-74
2022/01/24 04:58:19;;;;;;;16.27;10.03;;;;;;;;;;5046786;28;20204;-75
2022/01/24 05:00:44;;;;;;;13.87;9.97;;;;;;;;;;5053822;28;20174;-74
2022/01/24 05:03:09;;;;;;;14.37;9.77;;;;;;;;;;5046248;28;20444;-74
2022/01/24 05:05:34;;;;;;;13.33;9.30;;;;;;;;;;5047989;28;20182;-75
2022/01/24 05:08:05;;;;;;;15.60;10.10;;;;;;;;;;5064892;28;20226;-75
2022/01/24 05:10:37;;;;;;;14.23;9.67;;;;;;;;;;5051926;28;20457;-75
2022/01/24 05:23:53;;;;;;;16.93;11.67;;;;;;;;;;5050624;28;20173;-75
2022/01/24 05:26:18;;;;;;;13.40;9.80;;;;;;;;;;5057055;28;20312;-75
2022/01/24 05:28:43;;;;;;;13.03;8.80;;;;;;;;;;5046137;28;20191;-75
2022/01/24 05:31:08;;;;;;;15.03;9.20;;;;;;;;;;5047889;28;20186;-75
2022/01/24 05:33:34;;;;;;;15.43;9.13;;;;;;;;;;5048981;28;20288;-75
2022/01/24 05:35:59;;;;;;;14.17;9.87;;;;;;;;;;5050011;28;20192;-75
2022/01/24 05:38:24;;;;;;;18.03;12.67;;;;;;;;;;5050326;28;20218;-75
2022/01/24 05:40:50;;;;;;;20.50;14.00;;;;;;;;;;5060099;28;20170;-75
2022/01/24 05:43:18;;;;;;;14.33;10.57;;;;;;;;;;5051120;28;20204;-75
2022/01/24 05:45:43;;;;;;;12.70;9.83;;;;;;;;;;5062096;28;20175;-75
2022/01/24 05:48:08;;;;;;;15.53;10.53;;;;;;;;;;5049039;28;20188;-75
2022/01/24 05:50:34;;;;;;;17.33;10.10;;;;;;;;;;5051291;28;20262;-75
2022/01/24 05:52:59;;;;;;;15.50;9.80;;;;;;;;;;5049662;28;20255;-75
2022/01/24 05:55:24;;;;;;;15.73;10.00;;;;;;;;;;5050270;28;20187;-75
2022/01/24 05:57:52;;;;;;;16.60;10.93;;;;;;;;;;5051597;28;20215;-75
2022/01/24 06:00:17;;;;;;;17.50;10.07;;;;;;;;;;5050441;28;20567;-75
2022/01/24 06:02:43;;;;;;;16.63;10.60;;;;;;;;;;5046591;28;20386;-75
2022/01/24 06:05:08;;;;;;;15.57;9.73;;;;;;;;;;5051493;28;20204;-75
2022/01/24 06:07:33;;;;;;;13.93;9.63;;;;;;;;;;5048847;28;20188;-76
2022/01/24 06:09:58;;;;;;;14.27;8.97;;;;;;;;;;5032554;28;20180;-75
2022/01/24 06:12:25;;;;;;;18.87;9.93;;;;;;;;;;5029829;28;20187;-76
2022/01/24 06:14:50;;;;;;;17.50;9.83;;;;;;;;;;5032146;28;20270;-76
2022/01/24 06:17:17;;;;;;;15.30;9.90;;;;;;;;;;5031669;28;20298;-75
2022/01/24 06:19:42;;;;;;;15.23;9.90;;;;;;;;;;5031178;28;21155;-75
2022/01/24 06:22:07;;;;;;;16.30;10.20;;;;;;;;;;5028267;28;20183;-75
2022/01/24 06:24:33;;;;;;;15.17;9.57;;;;;;;;;;5026701;28;20187;-75
2022/01/24 06:26:58;;;;;;;19.00;10.47;;;;;;;;;;5031564;28;20176;-75
2022/01/24 06:29:23;;;;;;;16.10;9.77;;;;;;;;;;5047680;28;20190;-75
2022/01/24 06:31:48;;;;;;;15.43;10.50;;;;;;;;;;5030577;28;20269;-75
2022/01/24 06:34:13;;;;;;;14.93;9.77;;;;;;;;;;5029897;28;20203;-75
2022/01/24 06:36:38;;;;;;;17.93;11.23;;;;;;;;;;5029720;28;20206;-75
2022/01/24 06:39:07;;;;;;;19.17;10.57;;;;;;;;;;5028702;28;20259;-75
2022/01/24 06:41:34;;;;;;;19.50;11.03;;;;;;;;;;5030546;28;20174;-75
2022/01/24 06:44:00;;;;;;;15.27;9.73;;;;;;;;;;5030257;28;20179;-75
2022/01/24 06:46:26;;;;;;;17.90;10.30;;;;;;;;;;5029997;28;20179;-75
2022/01/24 06:48:51;;;;;;;18.63;11.37;;;;;;;;;;5030542;28;20193;-75
2022/01/24 06:51:20;;;;;;;15.67;10.70;;;;;;;;;;5035126;28;20220;-75
2022/01/24 06:53:46;;;;;;;17.43;10.90;;;;;;;;;;5030134;28;20217;-75
2022/01/24 06:56:12;;;;;;;17.23;11.00;;;;;;;;;;5029626;28;20187;-75
2022/01/24 06:58:37;;;;;;;18.43;11.27;;;;;;;;;;5028970;28;20241;-75
2022/01/24 07:01:04;;;;;;;16.53;10.53;;;;;;;;;;5033914;28;20286;-75
2022/01/24 07:03:29;;;;;;;17.03;10.30;;;;;;;;;;5031965;28;20275;-75
2022/01/24 07:05:54;;;;;;;16.80;10.43;;;;;;;;;;5030346;28;20234;-74
2022/01/24 07:08:19;;;;;;;18.13;10.37;;;;;;;;;;5037979;28;20242;-75
2022/01/24 07:10:45;;;;;;;19.90;11.03;;;;;;;;;;5051894;28;20186;-75
2022/01/24 07:13:11;;;;;;;22.57;11.30;;;;;;;;;;5087215;23;20244;-75
2022/01/24 07:15:45;;;;;;;35.47;22.57;;;;;;;;;;5014379;28;20253;-75
2022/01/24 07:20:57;;;;;;;25.43;14.87;;;;;;;;;;5011752;28;20339;-75
2022/01/24 07:23:23;;;;;;;22.97;13.00;;;;;;;;;;5008504;28;20236;-75
2022/01/24 07:25:48;;;;;;;25.73;16.90;;;;;;;;;;5010602;28;20262;-75
2022/01/24 07:28:14;;;;;;;23.53;14.27;;;;;;;;;;5010292;28;20206;-75
2022/01/24 07:30:39;;;;;;;22.07;14.20;;;;;;;;;;5009599;28;20195;-75
2022/01/24 07:33:04;;;;;;;23.93;14.17;;;;;;;;;;4990265;28;20252;-75
2022/01/24 07:35:30;;;;;;;22.97;13.40;;;;;;;;;;5010018;28;20193;-75
2022/01/24 07:37:55;;;;;;;19.93;11.83;;;;;;;;;;5006182;28;20199;-75
2022/01/24 07:40:22;;;;;;;20.37;12.90;;;;;;;;;;4997855;28;20274;-75
2022/01/24 07:43:29;;;;;;;19.73;12.80;;;;;;;;;;5011299;28;20179;-75
2022/01/24 07:45:36;;;;;;;18.37;11.57;;;;;;;;;;5001228;28;20208;-75
2022/01/24 07:48:01;;;;;;;23.60;15.97;;;;;;;;;;5006838;28;20188;-75
2022/01/24 07:50:27;;;;;;;23.23;13.63;;;;;;;;;;5002299;28;20189;-75
2022/01/24 07:52:52;;;;;;;21.37;13.13;;;;;;;;;;4990171;28;20194;-75
2022/01/24 07:55:18;;;;;;;20.20;12.67;;;;;;;;;;4991504;28;20188;-75
2022/01/24 07:57:43;;;;;;;20.83;12.90;;;;;;;;;;4989947;28;20215;-75
2022/01/24 08:00:10;;;;;;;19.77;11.60;;;;;;;;;;4992254;28;20190;-75
2022/01/24 08:02:36;;;;;;;19.77;13.03;;;;;;;;;;4993586;28;20183;-75
2022/01/24 08:05:01;;;;;;;19.30;11.60;;;;;;;;;;5008588;28;20243;-75
2022/01/24 08:07:26;;;;;;;20.90;12.17;;;;;;;;;;5010198;28;20189;-75
2022/01/24 08:09:51;;;;;;;20.53;12.47;;;;;;;;;;5009191;28;20184;-75
2022/01/24 08:12:17;;;;;;;21.90;12.90;;;;;;;;;;5009836;28;20183;-75
2022/01/24 08:14:43;;;;;;;17.70;10.50;;;;;;;;;;4992311;28;20258;-76
2022/01/24 08:17:08;;;;;;;23.20;12.40;;;;;;;;;;4990500;28;20246;-76
2022/01/24 08:19:34;;;;;;;24.17;12.97;;;;;;;;;;5002113;28;20263;-75
2022/01/24 08:21:59;;;;;;;20.47;13.70;;;;;;;;;;4995896;28;20222;-76
2022/01/24 08:24:24;;;;;;;20.77;14.43;;;;;;;;;;4995069;28;20225;-76
2022/01/24 08:26:50;;;;;;;21.17;13.57;;;;;;;;;;5007500;28;20168;-76
2022/01/24 08:29:15;;;;;;;21.90;12.43;;;;;;;;;;5009308;28;20196;-76
2022/01/24 08:31:40;;;;;;;21.10;12.53;;;;;;;;;;4989738;28;20245;-76
2022/01/24 08:34:05;;;;;;;20.30;11.97;;;;;;;;;;4992292;28;20192;-76
2022/01/24 08:36:30;;;;;;;16.17;11.63;;;;;;;;;;4995487;28;20180;-77
2022/01/24 08:39:01;;;;;;;20.57;12.13;;;;;;;;;;4997205;28;20220;-77
2022/01/24 08:41:39;;;;;;;22.43;13.17;;;;;;;;;;5011534;28;20250;-77
2022/01/24 08:44:17;;;;;;;18.83;11.50;;;;;;;;;;4992577;28;20176;-77
2022/01/24 08:46:43;;;;;;;25.27;14.13;;;;;;;;;;5008205;28;20179;-77
2022/01/24 08:49:08;;;;;;;22.10;12.73;;;;;;;;;;4991522;28;20206;-77
2022/01/24 08:51:33;;;;;;;21.30;13.27;;;;;;;;;;4992816;28;20175;-77
2022/01/24 08:53:59;;;;;;;20.43;13.17;;;;;;;;;;4987161;28;20390;-77
2022/01/24 08:56:25;;;;;;;21.50;12.33;;;;;;;;;;4988582;28;20184;-77
2022/01/24 08:58:50;;;;;;;20.03;12.37;;;;;;;;;;5006814;28;20259;-77
2022/01/24 09:01:15;;;;;;;23.07;13.20;;;;;;;;;;4994037;28;20206;-77
2022/01/24 09:03:41;;;;;;;22.98;12.95;;;;;;;;;;4989216;28;20212;-77
2022/01/24 09:06:07;;;;;;;20.23;12.47;;;;;;;;;;4990451;28;20194;-77
2022/01/24 09:08:32;;;;;;;22.47;11.87;;;;;;;;;;4993098;28;20185;-77
2022/01/24 09:10:57;;;;;;;19.60;13.00;;;;;;;;;;5013276;28;20530;-77
2022/01/24 09:13:22;;;;;;;18.43;11.87;;;;;;;;;;5071462;23;20259;-77
2022/01/24 09:15:48;;;;;;;19.17;12.87;;;;;;;;;;5018941;28;20184;-77
2022/01/24 09:18:15;;;;;;;18.27;12.33;;;;;;;;;;5022051;28;20279;-77
2022/01/24 09:20:41;;;;;;;17.10;11.93;;;;;;;;;;5018381;28;20266;-76
2022/01/24 09:23:07;;;;;;;19.60;12.43;;;;;;;;;;5012292;28;20316;-77
2022/01/24 09:25:32;;;;;;;17.80;12.00;;;;;;;;;;5015212;28;20297;-77
2022/01/24 09:27:57;;;;;;;18.13;12.30;;;;;;;;;;5017985;28;20205;-77
2022/01/24 09:30:23;;;;;;;21.67;12.60;;;;;;;;;;5011808;28;20194;-77
2022/01/24 09:32:49;;;;;;;17.03;11.70;;;;;;;;;;5013206;28;20176;-77
2022/01/24 09:35:14;;;;;;;13.63;10.57;;;;;;;;;;5018768;28;20215;-77
2022/01/24 09:37:39;;;;;;;16.90;11.60;;;;;;;;;;5033984;28;20198;-77
2022/01/24 09:40:05;;;;;;;18.93;11.87;;;;;;;;;;5020874;28;20166;-77
2022/01/24 09:42:31;;;;;;;16.63;11.47;;;;;;;;;;5013951;28;20258;-77
2022/01/24 09:44:56;;;;;;;16.60;11.93;;;;;;;;;;5026046;28;20179;-77
2022/01/24 09:47:21;;;;;;;13.57;10.17;;;;;;;;;;5035757;28;20206;-77
2022/01/24 09:49:50;;;;;;;15.87;11.67;;;;;;;;;;5035806;28;20171;-77
2022/01/24 09:52:17;;;;;;;17.03;10.23;;;;;;;;;;5020624;28;20205;-77
2022/01/24 09:54:42;;;;;;;17.70;11.20;;;;;;;;;;5018587;28;20167;-77
2022/01/24 09:57:07;;;;;;;17.17;11.70;;;;;;;;;;5031543;28;20210;-77
2022/01/24 09:59:33;;;;;;;17.37;12.60;;;;;;;;;;5032126;28;20179;-77
2022/01/24 10:01:59;;;;;;;18.50;11.63;;;;;;;;;;5017867;28;20194;-77
2022/01/24 10:04:25;;;;;;;17.40;11.40;;;;;;;;;;5023483;28;20178;-77
2022/01/24 10:06:58;;;;;;;15.73;11.93;;;;;;;;;;5030048;28;20172;-77
2022/01/24 10:09:27;;;;;;;16.63;11.53;;;;;;;;;;5016381;28;20188;-77
2022/01/24 10:12:12;;;;;;;16.80;11.57;;;;;;;;;;5012339;28;20175;-77
2022/01/24 10:17:22;;;;;;;15.87;10.87;;;;;;;;;;5029197;28;20212;-76
2022/01/24 10:19:47;;;;;;;16.93;10.83;;;;;;;;;;5028787;28;20209;-77
2022/01/24 10:22:13;;;;;;;15.77;10.03;;;;;;;;;;5021207;28;20224;-76
2022/01/24 10:24:45;;;;;;;15.37;12.10;;;;;;;;;;5015301;28;20167;-77
2022/01/24 10:27:18;;;;;;;12.70;10.03;;;;;;;;;;5019746;28;20182;-76
2022/01/24 10:29:49;;;;;;;13.07;9.27;;;;;;;;;;5015826;28;20195;-76
2022/01/24 10:32:27;;;;;;;14.60;10.40;;;;;;;;;;5020075;28;20198;-77
2022/01/24 10:34:52;;;;;;;13.33;9.40;;;;;;;;;;5015358;28;20206;-76
2022/01/24 10:37:20;;;;;;;14.13;8.27;;;;;;;;;;5033016;28;20183;-76
2022/01/24 10:39:55;;;;;;;12.53;9.83;;;;;;;;;;5017975;28;20253;-77
2022/01/24 10:45:12;;;;;;;12.87;8.93;;;;;;;;;;5038515;28;20185;-76
2022/01/24 10:47:44;;;;;;;15.13;11.03;;;;;;;;;;5018266;28;20256;-82
2022/01/24 10:50:09;;;;;;;12.40;8.27;;;;;;;;;;5021897;28;20210;-82
2022/01/24 10:52:34;;;;;;;13.83;10.70;;;;;;;;;;5023452;28;20220;-82
2022/01/24 10:55:10;;;;;;;12.43;10.60;;;;;;;;;;5017469;28;20178;-83
2022/01/24 10:57:36;;;;;;;13.13;10.33;;;;;;;;;;5011392;28;20199;-82
2022/01/24 11:00:05;;;;;;;13.17;9.23;;;;;;;;;;5032214;28;20222;-82
2022/01/24 11:02:41;;;;;;;11.97;9.57;;;;;;;;;;5026858;28;20175;-81
2022/01/24 11:05:12;;;;;;;12.73;9.47;;;;;;;;;;5029806;28;20179;-82
2022/01/24 11:07:56;;;;;;;11.27;8.87;;;;;;;;;;5019744;28;20189;-80
2022/01/24 11:10:21;;;;;;;14.80;10.07;;;;;;;;;;5022668;28;20308;-81
2022/01/24 11:12:47;;;;;;;12.83;9.03;;;;;;;;;;5030992;28;20182;-81
2022/01/24 11:15:12;;;;;;;13.17;9.63;;;;;;;;;;5013659;28;20298;-81
2022/01/24 11:17:38;;;;;;;13.80;10.83;;;;;;;;;;5015932;28;20760;-80
2022/01/24 11:20:03;;;;;;;15.33;9.50;;;;;;;;;;5023931;28;20265;-81
2022/01/24 11:22:31;;;;;;;13.40;9.87;;;;;;;;;;5032331;28;20182;-80
2022/01/24 11:25:00;;;;;;;13.27;9.23;;;;;;;;;;5019249;28;20232;-80
2022/01/24 11:27:26;;;;;;;12.90;8.83;;;;;;;;;;5021976;28;20177;-80
2022/01/24 11:29:53;;;;;;;13.90;8.53;;;;;;;;;;5014139;28;20174;-80
2022/01/24 11:32:30;;;;;;;12.90;9.83;;;;;;;;;;5020891;28;20179;-80
2022/01/24 11:34:56;;;;;;;14.13;11.17;;;;;;;;;;5008963;28;20190;-80
2022/01/24 11:37:31;;;;;;;11.47;8.27;;;;;;;;;;5031585;28;20237;-80
2022/01/24 11:39:56;;;;;;;13.83;9.27;;;;;;;;;;5013656;28;20174;-79
2022/01/24 11:42:32;;;;;;;8.63;5.50;;;;;;;;;;5011782;28;20174;-80
2022/01/24 11:45:04;;;;;;;11.57;8.23;;;;;;;;;;5013167;28;20174;-80
2022/01/24 11:47:31;;;;;;;12.23;8.30;;;;;;;;;;5013604;28;20226;-79
2022/01/24 11:49:57;;;;;;;16.03;7.80;;;;;;;;;;5012948;28;20175;-79
2022/01/24 11:52:30;;;;;;;13.50;8.23;;;;;;;;;;5013751;28;20189;-79
2022/01/24 11:55:16;;;;;;;13.67;9.80;;;;;;;;;;5021498;28;20262;-80
2022/01/24 11:57:44;;;;;;;15.10;9.73;;;;;;;;;;5002889;28;20202;-79
2022/01/24 12:00:10;;;;;;;13.23;9.23;;;;;;;;;;5018959;28;20953;-79
2022/01/24 12:02:41;;;;;;;13.68;8.93;;;;;;;;;;5031142;28;20175;-79
2022/01/24 12:05:10;;;;;;;17.27;9.70;;;;;;;;;;5020287;28;20178;-79
2022/01/24 12:07:43;;;;;;;11.03;8.30;;;;;;;;;;5016085;28;20242;-78
2022/01/24 12:10:21;;;;;;;16.20;10.90;;;;;;;;;;5013309;28;20182;-79
2022/01/24 12:12:48;;;;;;;11.23;7.53;;;;;;;;;;5018581;28;20185;-79
2022/01/24 12:15:32;;;;;;;11.37;7.97;;;;;;;;;;5015705;28;20233;-78
2022/01/24 12:18:01;;;;;;;18.97;11.10;;;;;;;;;;5029644;28;20275;-78
2022/01/24 12:20:29;;;;;;;13.67;9.27;;;;;;;;;;5114282;22;20225;-79
2022/01/24 12:22:55;;;;;;;12.80;9.47;;;;;;;;;;5050552;28;20261;-79
2022/01/24 12:25:40;;;;;;;16.43;9.53;;;;;;;;;;5036112;28;20272;-79
2022/01/24 12:28:19;;;;;;;15.30;9.47;;;;;;;;;;5029084;28;20177;-79
2022/01/24 12:31:03;;;;;;;17.17;9.23;;;;;;;;;;5030902;28;20186;-79
2022/01/24 12:33:51;;;;;;;13.53;8.60;;;;;;;;;;5053501;28;20205;-79
2022/01/24 12:36:36;;;;;;;13.50;9.53;;;;;;;;;;5023588;28;20212;-79
2022/01/24 12:39:08;;;;;;;10.77;7.37;;;;;;;;;;5048913;28;20212;-79
2022/01/24 12:41:38;;;;;;;13.63;10.03;;;;;;;;;;5034139;28;20344;-79
2022/01/24 12:46:29;;;;;;;12.83;9.50;;;;;;;;;;5055420;28;20186;-80
2022/01/24 12:48:56;;;;;;;13.47;9.43;;;;;;;;;;5039428;28;20181;-80
2022/01/24 12:51:22;;;;;;;14.07;8.93;;;;;;;;;;5037651;28;20272;-80
2022/01/24 12:53:48;;;;;;;14.23;10.20;;;;;;;;;;5036458;28;20174;-80
2022/01/24 12:56:15;;;;;;;12.73;8.67;;;;;;;;;;5032716;28;20181;-80
2022/01/24 12:58:42;;;;;;;11.70;8.63;;;;;;;;;;5030768;28;20205;-80
2022/01/24 13:01:21;;;;;;;12.93;8.23;;;;;;;;;;5030963;28;20181;-80
2022/01/24 13:03:47;;;;;;;16.70;9.53;;;;;;;;;;5034874;28;20237;-80
2022/01/24 13:06:16;;;;;;;12.93;8.63;;;;;;;;;;5031566;28;20236;-80
2022/01/24 13:09:11;;;;;;;12.00;8.37;;;;;;;;;;5032783;28;20175;-81
2022/01/24 13:11:46;;;;;;;10.20;5.17;;;;;;;;;;5027958;28;20197;-81
2022/01/24 13:14:16;;;;;;;11.73;8.70;;;;;;;;;;5032587;28;20184;-80
2022/01/24 13:22:39;;;;;;;13.40;8.67;;;;;;;;;;5055672;28;20263;-80
2022/01/24 13:25:36;;;;;;;14.27;7.83;;;;;;;;;;5062907;28;20177;-81
2022/01/24 13:28:05;;;;;;;14.17;10.53;;;;;;;;;;5027998;28;20190;-81
2022/01/24 13:30:32;;;;;;;12.00;8.80;;;;;;;;;;5050267;28;20265;-81
2022/01/24 13:32:59;;;;;;;10.40;8.03;;;;;;;;;;5041575;28;20296;-81
2022/01/24 13:35:37;;;;;;;11.57;8.47;;;;;;;;;;5043795;28;20232;-80
2022/01/24 13:38:07;;;;;;;11.97;7.67;;;;;;;;;;5035865;28;20252;-81
2022/01/24 13:40:56;;;;;;;10.10;7.57;;;;;;;;;;5030090;28;20224;-81
2022/01/24 13:43:32;;;;;;;10.73;7.57;;;;;;;;;;5034672;28;20174;-80
2022/01/24 13:45:58;;;;;;;9.13;7.40;;;;;;;;;;5041808;28;20169;-80
2022/01/24 13:48:24;;;;;;;11.13;8.47;;;;;;;;;;5043776;28;20190;-80
2022/01/24 13:50:59;;;;;;;11.40;8.00;;;;;;;;;;5044014;28;20190;-81
2022/01/24 13:53:31;;;;;;;8.97;6.70;;;;;;;;;;5033869;28;20213;-80
2022/01/24 13:55:58;;;;;;;9.63;6.90;;;;;;;;;;5028910;28;20188;-80
2022/01/24 13:58:24;;;;;;;13.20;7.93;;;;;;;;;;5034472;28;20226;-80
2022/01/24 14:00:55;;;;;;;9.67;7.77;;;;;;;;;;5049791;28;20217;-80
2022/01/24 14:03:22;;;;;;;9.87;7.07;;;;;;;;;;5032998;28;20244;-80
2022/01/24 14:05:47;;;;;;;8.87;6.80;;;;;;;;;;5042856;28;20182;-80
2022/01/24 14:08:16;;;;;;;12.53;10.07;;;;;;;;;;5032491;28;20197;-80
2022/01/24 14:10:41;;;;;;;8.57;7.07;;;;;;;;;;5035648;28;20186;-80
2022/01/24 14:13:08;;;;;;;11.63;6.97;;;;;;;;;;5039962;28;20269;-80
2022/01/24 14:20:46;;;;;;;8.77;6.17;;;;;;;;;;5134541;22;20221;-77
2022/01/24 14:23:22;;;;;;;8.77;6.83;;;;;;;;;;5031189;28;20202;-77
2022/01/24 14:25:47;;;;;;;11.07;6.70;;;;;;;;;;5047785;28;20205;-77
2022/01/24 14:28:13;;;;;;;8.87;6.33;;;;;;;;;;5027092;28;20210;-77
2022/01/24 14:30:43;;;;;;;9.37;6.37;;;;;;;;;;5037769;28;20178;-77
2022/01/24 14:33:18;;;;;;;7.60;6.33;;;;;;;;;;5053295;28;20208;-77
2022/01/24 14:35:55;;;;;;;7.73;6.23;;;;;;;;;;5051158;28;20169;-77
2022/01/24 14:38:28;;;;;;;7.23;5.67;;;;;;;;;;5046674;28;20201;-77
2022/01/24 14:40:55;;;;;;;6.93;5.90;;;;;;;;;;5051693;28;20264;-77
2022/01/24 14:46:07;;;;;;;8.17;5.90;;;;;;;;;;5067400;28;20184;-78
2022/01/24 14:48:40;;;;;;;9.57;6.13;;;;;;;;;;5047365;28;20264;-77
2022/01/24 14:51:05;;;;;;;9.17;6.60;;;;;;;;;;5049853;28;20448;-78
2022/01/24 14:53:34;;;;;;;7.03;5.93;;;;;;;;;;5047308;28;20185;-77
2022/01/24 14:55:59;;;;;;;8.80;5.97;;;;;;;;;;5072811;28;20185;-78
2022/01/24 14:58:24;;;;;;;13.27;6.90;;;;;;;;;;5057085;28;20206;-78
2022/01/24 15:00:50;;;;;;;10.00;8.97;;;;;;;;;;5052475;28;20186;-78
2022/01/24 15:03:15;;;;;;;9.67;6.70;;;;;;;;;;5053621;28;20231;-77
2022/01/24 15:05:40;;;;;;;8.63;6.73;;;;;;;;;;5054023;28;20256;-78
2022/01/24 15:08:05;;;;;;;9.10;6.60;;;;;;;;;;5057342;28;20200;-78
2022/01/24 15:10:31;;;;;;;8.87;6.50;;;;;;;;;;5053246;28;20177;-78
2022/01/24 15:13:03;;;;;;;7.93;7.00;;;;;;;;;;5071290;28;20268;-78
2022/01/24 15:15:29;;;;;;;7.80;5.53;;;;;;;;;;5071411;28;20225;-78
2022/01/24 15:26:00;;;;;;;8.03;5.90;;;;;;;;;;5066164;28;20207;-77
2022/01/24 15:28:25;;;;;;;8.00;6.00;;;;;;;;;;5054933;28;20201;-77
2022/01/24 15:30:50;;;;;;;9.03;5.70;;;;;;;;;;5053145;28;20176;-77
2022/01/24 15:33:16;;;;;;;7.23;5.87;;;;;;;;;;5050297;28;20208;-77
2022/01/24 15:35:41;;;;;;;7.57;5.77;;;;;;;;;;5049802;28;20259;-77
2022/01/24 15:38:06;;;;;;;6.80;5.70;;;;;;;;;;5051184;28;20189;-78
2022/01/24 15:40:32;;;;;;;7.73;6.33;;;;;;;;;;5052708;28;20181;-78
2022/01/24 15:43:04;;;;;;;7.90;5.53;;;;;;;;;;5055066;28;20169;-77
2022/01/24 15:47:58;;;;;;;8.97;5.67;;;;;;;;;;5070077;28;20177;-78
2022/01/24 15:50:24;;;;;;;7.17;5.83;;;;;;;;;;5056828;28;20181;-78
2022/01/24 15:52:51;;;;;;;7.37;5.70;;;;;;;;;;5059259;28;20179;-78
2022/01/24 15:55:17;;;;;;;8.40;5.03;;;;;;;;;;5046422;28;20181;-78
2022/01/24 15:57:43;;;;;;;8.93;7.07;;;;;;;;;;5045499;28;20271;-78
2022/01/24 16:00:13;;;;;;;11.50;7.43;;;;;;;;;;5050352;28;20173;-78
2022/01/24 16:02:39;;;;;;;9.10;7.40;;;;;;;;;;5048404;28;20200;-78
2022/01/24 16:05:04;;;;;;;6.83;5.43;;;;;;;;;;5056395;28;20178;-78
2022/01/24 16:07:31;;;;;;;6.10;4.53;;;;;;;;;;5054444;28;20181;-78
2022/01/24 16:09:56;;;;;;;9.90;5.57;;;;;;;;;;5052379;28;20259;-78
2022/01/24 16:12:23;;;;;;;6.33;5.10;;;;;;;;;;5077609;28;20185;-77
2022/01/24 16:14:48;;;;;;;7.03;5.03;;;;;;;;;;5055028;28;20421;-78
2022/01/24 16:17:13;;;;;;;7.83;6.03;;;;;;;;;;5051454;28;20198;-78
2022/01/24 16:19:44;;;;;;;5.77;4.73;;;;;;;;;;5048847;28;20207;-78
2022/01/24 16:27:00;;;;;;;10.37;6.73;;;;;;;;;;5053376;28;20220;-78
2022/01/24 16:29:26;;;;;;;27.93;15.27;;;;;;;;;;5031239;28;20175;-78
2022/01/24 16:31:51;;;;;;;16.57;10.53;;;;;;;;;;5030674;28;20182;-78
2022/01/24 16:34:17;;;;;;;11.90;8.40;;;;;;;;;;5030930;28;20202;-78
2022/01/24 16:36:42;;;;;;;8.90;6.47;;;;;;;;;;5027113;28;20180;-78
2022/01/24 16:39:08;;;;;;;6.93;6.20;;;;;;;;;;5027393;28;20193;-78
2022/01/24 16:41:49;;;;;;;11.47;6.30;;;;;;;;;;5027505;28;20183;-78
2022/01/24 16:49:23;;;;;;;16.60;11.40;;;;;;;;;;5042779;28;20193;-78